This is the latest recevied weather packets stored in our database for station/object N0KWA. If no packets are shown the sender has not sent any weather packets the latest 10 day(s).
| Time | Temp. | Humidity | Pressure | Rain* | Wind** | Luminosity | Snow |
|---|---|---|---|---|---|---|---|
| 1777661928 | 16.11° C | 99% | 1012.3 hPa | 0 mm | - | 19 W/m² | - |
| 1777661625 | 16.11° C | 99% | 1012.6 hPa | 0 mm | - | 12 W/m² | - |
| 1777661321 | 16.11° C | 99% | 1012.6 hPa | 0 mm | - | 14 W/m² | - |
| 1777661017 | 16.11° C | 99% | 1013.1 hPa | 0 mm | - | 17 W/m² | - |
| 1777660712 | 16.11° C | 99% | 1013.4 hPa | 0 mm | - | 12 W/m² | - |
| 1777660410 | 16.11° C | 99% | 1013.4 hPa | 0 mm | - | 19 W/m² | - |
| 1777660106 | 16.11° C | 99% | 1013.5 hPa | 0 mm | - | 17 W/m² | - |
| 1777659803 | 16.67° C | 99% | 1013.6 hPa | 0 mm | - | 12 W/m² | - |
| 1777659500 | 16.11° C | 99% | 1013.7 hPa | 0 mm | - | 19 W/m² | - |
| 1777659197 | 16.11° C | 99% | 1014 hPa | 0 mm | - | 16 W/m² | - |
| 1777658894 | 16.11° C | 99% | 1013.9 hPa | 0 mm | - | 19 W/m² | - |
| 1777658590 | 16.67° C | 99% | 1014 hPa | 0 mm | - | 15 W/m² | - |
| 1777658288 | 16.67° C | 99% | 1014.1 hPa | 0 mm | - | 15 W/m² | - |
| 1777657984 | 16.67° C | 99% | 1014.4 hPa | 0 mm | - | 15 W/m² | - |
| 1777657681 | 16.67° C | 99% | 1014.5 hPa | 0 mm | - | 13 W/m² | - |
| 1777657379 | 16.67° C | 99% | 1014.3 hPa | 0 mm | - | 19 W/m² | - |
| 1777657076 | 16.67° C | 99% | 1014.4 hPa | 0 mm | - | 31 W/m² | - |
| 1777656773 | 16.67° C | 99% | 1014.4 hPa | 0 mm | - | 25 W/m² | - |
| 1777656469 | 16.67° C | 99% | 1014.8 hPa | 0 mm | - | 17 W/m² | - |
| 1777656164 | 16.67° C | 99% | 1015.1 hPa | 0 mm | - | 10 W/m² | - |
| 1777655860 | 16.67° C | 99% | 1015.2 hPa | 0 mm | - | 6 W/m² | - |
| 1777655557 | 16.67° C | 99% | 1015.3 hPa | 0 mm | - | 10 W/m² | - |
| 1777655254 | 16.67° C | 99% | 1015.1 hPa | 0 mm | - | 21 W/m² | - |
| 1777654951 | 16.67° C | 99% | 1015.5 hPa | 0 mm | - | 10 W/m² | - |
| 1777654648 | 16.67° C | 99% | 1015.7 hPa | 0 mm | - | 8 W/m² | - |
* Rain latest hour (hover to see other rain measurements)
** Current wind speed in m/s (hover to see current wind gust speed)